createdAt,value
2024-03-06T00:01:45.237Z,100670.41
2024-03-06T00:04:46.789Z,100664.41
2024-03-06T00:07:48.344Z,100677.63
2024-03-06T00:10:49.847Z,100690.81
2024-03-06T00:13:51.374Z,100694.22
2024-03-06T00:16:52.908Z,100695.91
2024-03-06T00:19:54.565Z,100693.41
2024-03-06T00:22:56.049Z,100700.41
2024-03-06T00:25:57.904Z,100709.16
2024-03-06T00:28:59.425Z,100710.09
2024-03-06T00:32:00.955Z,100715.28
2024-03-06T00:35:02.459Z,100713.53
2024-03-06T00:38:04.241Z,100716.97
2024-03-06T00:41:05.956Z,100724.88
2024-03-06T00:44:07.667Z,100716.19
2024-03-06T00:47:09.313Z,100718.94
2024-03-06T00:50:10.978Z,100720.84
2024-03-06T00:53:12.564Z,100719.09
2024-03-06T00:56:14.183Z,100722.59
2024-03-06T00:59:15.702Z,100721.72
2024-03-06T01:02:17.280Z,100724.50
2024-03-06T01:05:18.911Z,100721.97
2024-03-06T01:08:20.763Z,100720.22
2024-03-06T01:11:22.659Z,100706.16
2024-03-06T01:14:24.258Z,100705.34
2024-03-06T01:17:25.871Z,100711.50
2024-03-06T01:20:27.465Z,100711.50
2024-03-06T01:23:28.929Z,100717.72
2024-03-06T01:26:30.374Z,100710.00
2024-03-06T01:29:32.020Z,100715.41
2024-03-06T01:32:34.499Z,100715.47
2024-03-06T01:35:35.941Z,100712.03
2024-03-06T01:38:39.281Z,100719.03
2024-03-06T01:41:51.869Z,100713.84
2024-03-06T01:44:53.510Z,100703.41
2024-03-06T01:47:55.114Z,100704.38
2024-03-06T01:50:57.868Z,100707.81
2024-03-06T01:54:01.768Z,100725.19
2024-03-06T01:57:04.301Z,100726.00
2024-03-06T02:00:08.913Z,100724.19
2024-03-06T02:03:10.603Z,100722.44
2024-03-06T02:06:12.957Z,100725.88
2024-03-06T02:09:15.068Z,100720.75
2024-03-06T02:12:17.213Z,100714.66
2024-03-06T02:15:18.835Z,100722.56
2024-03-06T02:18:20.377Z,100718.19
2024-03-06T02:21:25.403Z,100721.63
2024-03-06T02:24:26.874Z,100719.00
2024-03-06T02:27:28.381Z,100730.31
2024-03-06T02:30:31.682Z,100727.63
2024-03-06T02:33:35.181Z,100731.06
2024-03-06T02:36:37.220Z,100724.19
2024-03-06T02:39:38.644Z,100720.88
2024-03-06T02:42:40.308Z,100723.50
2024-03-06T02:45:41.828Z,100725.25
2024-03-06T02:48:43.249Z,100729.63
2024-03-06T02:51:44.864Z,100726.06
2024-03-06T02:54:46.296Z,100725.19
2024-03-06T02:57:47.839Z,100719.09
2024-03-06T03:00:49.851Z,100723.47
2024-03-06T03:03:52.378Z,100726.13
2024-03-06T03:06:53.813Z,100729.69
2024-03-06T03:09:55.309Z,100720.97
2024-03-06T03:12:56.790Z,100725.31
2024-03-06T03:15:58.465Z,100726.06
2024-03-06T03:18:59.934Z,100726.94
2024-03-06T03:22:01.599Z,100738.22
2024-03-06T03:25:03.049Z,100731.16
2024-03-06T03:28:05.110Z,100727.63
2024-03-06T03:31:10.302Z,100730.34
2024-03-06T03:34:11.773Z,100733.97
2024-03-06T03:37:14.303Z,100736.59
2024-03-06T03:40:16.266Z,100740.94
2024-03-06T03:43:18.425Z,100740.91
2024-03-06T03:46:19.861Z,100746.09
2024-03-06T03:49:21.399Z,100740.84
2024-03-06T03:52:23.385Z,100739.13
2024-03-06T03:55:25.968Z,100741.72
2024-03-06T03:58:27.562Z,100749.56
2024-03-06T04:01:29.091Z,100753.94
2024-03-06T04:04:30.769Z,100751.31
2024-03-06T04:07:32.593Z,100750.44
2024-03-06T04:10:34.088Z,100759.16
2024-03-06T04:13:39.536Z,100758.28
2024-03-06T04:16:41.060Z,100759.34
2024-03-06T04:19:42.555Z,100766.38
2024-03-06T04:22:44.136Z,100766.38
2024-03-06T04:25:45.750Z,100770.69
2024-03-06T04:28:47.368Z,100772.38
2024-03-06T04:31:48.989Z,100778.47
2024-03-06T04:34:50.777Z,100781.97
2024-03-06T04:37:52.378Z,100787.16
2024-03-06T04:40:53.877Z,100788.03
2024-03-06T04:43:55.370Z,100795.94
2024-03-06T04:46:57.458Z,100798.50
2024-03-06T04:49:59.360Z,100802.84
2024-03-06T04:53:00.866Z,100801.13
2024-03-06T04:56:02.444Z,100801.16
2024-03-06T04:59:04.478Z,100804.66
2024-03-06T05:02:06.283Z,100807.28
2024-03-06T05:58:22.636Z,100880.38
2024-03-06T06:01:24.284Z,100879.47
2024-03-06T06:04:26.725Z,100885.56
2024-03-06T06:07:28.603Z,100893.41
2024-03-06T06:10:30.041Z,100892.50
2024-03-06T06:13:32.021Z,100895.13
2024-03-06T06:16:41.723Z,100902.09
2024-03-06T06:19:44.836Z,100902.09
2024-03-06T06:22:46.339Z,100902.91
2024-03-06T06:25:47.797Z,100908.97
2024-03-06T06:28:49.477Z,100909.84
2024-03-06T06:31:51.085Z,100910.78
2024-03-06T06:34:52.930Z,100921.25
2024-03-06T06:37:54.422Z,100916.84
2024-03-06T06:40:56.812Z,100919.41
2024-03-06T06:43:58.749Z,100919.41
2024-03-06T06:47:00.381Z,100918.41
2024-03-06T06:50:06.172Z,100927.16
2024-03-06T06:53:07.741Z,100925.44
2024-03-06T06:56:09.454Z,100922.88
2024-03-06T06:59:11.020Z,100933.31
2024-03-06T07:02:12.645Z,100943.81
2024-03-06T07:05:14.503Z,100948.22
2024-03-06T07:08:16.101Z,100943.75
2024-03-06T07:11:19.414Z,100950.78
2024-03-06T07:14:21.114Z,100957.78
2024-03-06T07:17:22.828Z,100958.66
2024-03-06T07:20:24.383Z,100961.22
2024-03-06T07:23:25.912Z,100959.47
2024-03-06T07:26:30.218Z,100951.53
2024-03-06T07:29:31.795Z,100952.38
2024-03-06T07:32:33.285Z,100949.75
2024-03-06T07:35:37.313Z,100959.34
2024-03-06T07:38:38.989Z,100964.47
2024-03-06T07:41:40.946Z,100961.00
2024-03-06T07:44:42.509Z,100970.56
2024-03-06T07:47:44.163Z,100973.09
2024-03-06T07:50:45.737Z,100981.72
2024-03-06T07:53:47.407Z,100978.97
2024-03-06T07:56:49.338Z,100984.22
2024-03-06T07:59:52.584Z,100987.78
2024-03-06T08:02:54.017Z,100987.94
2024-03-06T08:05:55.662Z,101000.97
2024-03-06T08:08:58.002Z,100991.34
2024-03-06T08:12:01.498Z,101002.66
2024-03-06T08:15:04.154Z,101007.81
2024-03-06T08:18:05.901Z,101012.13
2024-03-06T08:21:07.928Z,101005.13
2024-03-06T08:24:09.560Z,101002.47
2024-03-06T08:27:11.025Z,101007.72
2024-03-06T08:30:13.914Z,101001.66
2024-03-06T08:33:15.481Z,101000.84
2024-03-06T08:36:17.039Z,101000.84
2024-03-06T08:39:18.601Z,101002.56
2024-03-06T08:42:20.167Z,101007.84
2024-03-06T08:45:21.839Z,101013.81
2024-03-06T08:48:23.429Z,101012.00
2024-03-06T08:51:26.443Z,101012.06
2024-03-06T08:54:27.899Z,101009.38
2024-03-06T08:57:31.713Z,101007.66
2024-03-06T09:00:33.178Z,101012.81
2024-03-06T09:03:34.588Z,101008.44
2024-03-06T09:06:36.008Z,101015.28
2024-03-06T09:09:38.364Z,101012.59
2024-03-06T09:12:40.321Z,101019.50
2024-03-06T09:15:41.744Z,101015.88
2024-03-06T09:18:43.317Z,101017.63
2024-03-06T09:21:44.901Z,101022.72
2024-03-06T09:24:46.346Z,101019.25
2024-03-06T09:27:47.789Z,101024.72
2024-03-06T09:30:49.236Z,101021.16
2024-03-06T09:33:50.805Z,101025.34
2024-03-06T09:36:52.874Z,101024.47
2024-03-06T09:39:54.316Z,101027.16
2024-03-06T09:42:56.421Z,101022.63
2024-03-06T09:45:58.133Z,101024.31
2024-03-06T09:49:00.126Z,101022.44
2024-03-06T09:52:04.956Z,101032.00
2024-03-06T09:55:10.857Z,101025.72
2024-03-06T09:58:12.492Z,101032.38
2024-03-06T10:01:15.479Z,101024.53
2024-03-06T10:04:22.177Z,101024.25
2024-03-06T10:07:23.889Z,101028.34
2024-03-06T10:10:25.386Z,101022.88
2024-03-06T10:13:26.980Z,101012.47
2024-03-06T10:16:28.416Z,101019.47
2024-03-06T10:19:31.174Z,101018.97
2024-03-06T10:22:32.866Z,101023.69
2024-03-06T10:25:34.359Z,101021.81
2024-03-06T10:28:36.107Z,101033.88
2024-03-06T10:31:37.559Z,101018.97
2024-03-06T10:34:41.586Z,101019.84
2024-03-06T10:37:45.536Z,101026.78
2024-03-06T10:40:47.834Z,101025.00
2024-03-06T10:43:55.255Z,101020.72
2024-03-06T10:47:01.359Z,101029.28
2024-03-06T10:50:05.590Z,101021.25
2024-03-06T10:53:11.439Z,101020.22
2024-03-06T10:56:13.688Z,101022.66
2024-03-06T10:59:17.072Z,101019.16
2024-03-06T11:02:19.408Z,101031.72
2024-03-06T11:05:21.108Z,101028.72
2024-03-06T11:08:23.060Z,101032.00
2024-03-06T11:11:25.872Z,101030.91
2024-03-06T11:14:27.602Z,101027.25
2024-03-06T11:17:29.638Z,101015.88
2024-03-06T11:20:34.708Z,101023.63
2024-03-06T11:23:36.243Z,101018.47
2024-03-06T11:26:37.816Z,101016.75
2024-03-06T11:30:11.832Z,101023.09
2024-03-06T11:33:17.521Z,101013.84
2024-03-06T11:36:24.453Z,101018.25
2024-03-06T11:39:31.341Z,101015.00
2024-03-06T11:42:39.959Z,101021.34
2024-03-06T11:45:45.578Z,101014.91
2024-03-06T11:48:56.857Z,101011.22
2024-03-06T11:52:00.061Z,101011.09
2024-03-06T11:55:01.646Z,101011.06
2024-03-06T11:58:04.229Z,101006.56
2024-03-06T12:01:06.009Z,101008.03
2024-03-06T12:04:07.609Z,101007.88
2024-03-06T12:07:10.125Z,101008.72
2024-03-06T12:10:12.215Z,101005.91
2024-03-06T12:13:14.429Z,101007.91
2024-03-06T12:16:15.954Z,101005.25
2024-03-06T12:19:17.417Z,101007.78
2024-03-06T12:22:20.208Z,101003.97
2024-03-06T12:25:26.631Z,101000.75
2024-03-06T12:28:28.146Z,100996.13
2024-03-06T12:31:29.624Z,101004.19
2024-03-06T12:34:32.335Z,101001.41
2024-03-06T12:37:34.732Z,101000.38
2024-03-06T12:40:36.798Z,101007.38
2024-03-06T12:43:38.267Z,101006.66
2024-03-06T12:46:40.026Z,101004.94
2024-03-06T12:49:41.487Z,101009.69
2024-03-06T12:52:46.849Z,100998.41
2024-03-06T12:55:49.500Z,101002.91
2024-03-06T12:58:51.031Z,101005.44
2024-03-06T13:01:52.491Z,100998.56
2024-03-06T13:04:54.082Z,101003.09
2024-03-06T13:07:55.550Z,101001.34
2024-03-06T13:10:57.354Z,100995.94
2024-03-06T13:13:59.024Z,100998.53
2024-03-06T13:17:03.729Z,100997.78
2024-03-06T13:20:05.937Z,100996.00
2024-03-06T13:23:07.508Z,100996.03
2024-03-06T13:26:09.128Z,100996.91
2024-03-06T13:29:10.688Z,101004.09
2024-03-06T13:32:12.255Z,100999.69
2024-03-06T13:35:14.564Z,101003.94
2024-03-06T13:38:16.063Z,101005.78
2024-03-06T13:41:17.716Z,101005.69
2024-03-06T13:44:19.644Z,101006.44
2024-03-06T13:47:21.478Z,100998.28
2024-03-06T13:50:24.791Z,101006.16
2024-03-06T13:53:26.470Z,101002.69
2024-03-06T13:56:27.967Z,101006.22
2024-03-06T13:59:32.293Z,101007.88
2024-03-06T14:02:33.983Z,101012.34
2024-03-06T14:05:35.454Z,101017.69
2024-03-06T14:08:39.086Z,101006.16
2024-03-06T14:11:41.467Z,101009.47
2024-03-06T14:14:43.143Z,101006.69
2024-03-06T14:17:44.731Z,101007.81
2024-03-06T14:20:46.288Z,101013.22
2024-03-06T14:23:47.870Z,101009.59
2024-03-06T14:26:50.078Z,101014.81
2024-03-06T14:29:51.765Z,101008.81
2024-03-06T14:32:53.358Z,101010.69
2024-03-06T14:35:55.125Z,101013.34
2024-03-06T14:38:56.650Z,101011.56
2024-03-06T14:41:58.139Z,101009.69
2024-03-06T14:44:59.896Z,101008.69
2024-03-06T14:48:01.660Z,101011.44
2024-03-06T14:51:03.329Z,101022.84
2024-03-06T14:54:04.832Z,101028.03
2024-03-06T14:57:07.105Z,101012.38
2024-03-06T15:00:09.130Z,101016.88
2024-03-06T15:03:10.969Z,101020.28
2024-03-06T15:06:13.055Z,101027.25
2024-03-06T15:09:21.238Z,101029.03
2024-03-06T15:12:22.790Z,101033.38
2024-03-06T15:15:24.670Z,101030.06
2024-03-06T15:18:26.280Z,101037.16
2024-03-06T15:21:27.840Z,101040.81
2024-03-06T15:24:29.340Z,101032.97
2024-03-06T15:27:30.761Z,101027.69
2024-03-06T15:30:33.039Z,101035.53
2024-03-06T15:33:34.634Z,101041.72
2024-03-06T15:36:36.173Z,101037.25
2024-03-06T15:39:37.589Z,101034.56
2024-03-06T15:42:39.299Z,101045.19
2024-03-06T15:45:40.838Z,101041.81
2024-03-06T15:48:42.417Z,101046.06
2024-03-06T15:51:43.971Z,101046.94
2024-03-06T15:54:45.424Z,101044.09
2024-03-06T15:57:46.933Z,101053.72
2024-03-06T16:00:48.401Z,101048.72
2024-03-06T16:03:53.346Z,101059.41
2024-03-06T16:06:54.922Z,101055.06
2024-03-06T16:09:57.378Z,101042.81
2024-03-06T16:12:58.815Z,101040.13
2024-03-06T16:16:00.368Z,101040.72
2024-03-06T16:19:01.923Z,101046.81
2024-03-06T16:22:03.675Z,101050.34
2024-03-06T16:25:07.086Z,101058.25
2024-03-06T16:28:08.601Z,101059.31
2024-03-06T16:31:10.069Z,101062.94
2024-03-06T16:34:11.532Z,101064.84
2024-03-06T16:37:13.027Z,101063.13
2024-03-06T16:40:14.494Z,101066.69
2024-03-06T16:43:16.097Z,101071.06
2024-03-06T16:46:18.326Z,101076.22
2024-03-06T16:49:19.835Z,101079.59
2024-03-06T16:52:22.878Z,101077.94
2024-03-06T16:55:24.792Z,101087.59
2024-03-06T16:58:26.351Z,101077.16
2024-03-06T17:01:28.414Z,101085.09
2024-03-06T17:04:30.001Z,101090.38
2024-03-06T17:07:31.467Z,101084.19
2024-03-06T17:10:33.038Z,101086.81
2024-03-06T17:13:38.932Z,101086.84
2024-03-06T17:16:40.373Z,101084.09
2024-03-06T17:19:41.927Z,101081.47
2024-03-06T17:22:43.366Z,101089.22
2024-03-06T17:25:45.078Z,101099.66
2024-03-06T17:28:50.370Z,101092.75
2024-03-06T17:31:53.800Z,101103.34
2024-03-06T17:34:55.462Z,101104.28
2024-03-06T17:37:57.020Z,101102.47
2024-03-06T17:40:58.465Z,101106.97
2024-03-06T17:43:59.902Z,101103.50
2024-03-06T17:47:01.388Z,101110.44
2024-03-06T17:50:07.370Z,101110.47
2024-03-06T17:53:10.736Z,101124.50
2024-03-06T17:56:12.242Z,101118.38
2024-03-06T17:59:13.814Z,101116.78
2024-03-06T18:02:15.438Z,101128.91
2024-03-06T18:05:17.873Z,101130.66
2024-03-06T18:08:19.811Z,101121.88
2024-03-06T18:11:22.708Z,101127.13
2024-03-06T18:14:24.298Z,101127.13
2024-03-06T18:17:26.696Z,101122.72
2024-03-06T18:20:30.638Z,101120.09
2024-03-06T18:23:32.618Z,101120.97
2024-03-06T18:26:34.279Z,101127.13
2024-03-06T18:29:35.885Z,101125.41
2024-03-06T18:32:37.488Z,101119.31
2024-03-06T18:35:39.062Z,101125.69
2024-03-06T18:38:40.726Z,101127.56
2024-03-06T18:41:42.682Z,101138.84
2024-03-06T18:44:44.322Z,101136.34
2024-03-06T18:47:47.476Z,101144.16
2024-03-06T18:50:49.230Z,101144.16
2024-03-06T18:53:50.933Z,101142.47
2024-03-06T18:56:54.005Z,101138.97
2024-03-06T18:59:55.648Z,101148.66
2024-03-06T19:02:57.229Z,101142.59
2024-03-06T19:05:58.822Z,101141.03
2024-03-06T19:09:00.306Z,101142.03
2024-03-06T19:12:01.896Z,101147.41
2024-03-06T19:15:04.460Z,101137.84
2024-03-06T19:18:06.154Z,101144.88
2024-03-06T19:21:07.691Z,101153.75
2024-03-06T19:24:09.210Z,101150.25
2024-03-06T19:27:10.695Z,101155.69
2024-03-06T19:30:12.409Z,101159.22
2024-03-06T19:33:13.935Z,101161.00
2024-03-06T19:36:15.477Z,101161.00
2024-03-06T19:39:18.304Z,101168.09
2024-03-06T19:42:20.429Z,101171.69
2024-03-06T19:45:22.029Z,101165.53
2024-03-06T19:48:23.964Z,101169.06
2024-03-06T19:51:25.485Z,101164.78
2024-03-06T19:54:30.104Z,101164.75
2024-03-06T19:57:31.714Z,101169.16
2024-03-06T20:00:34.753Z,101165.78
2024-03-06T20:03:36.246Z,101172.06
2024-03-06T20:06:38.669Z,101167.72
2024-03-06T20:09:41.770Z,101166.88
2024-03-06T20:12:43.405Z,101169.59
2024-03-06T20:15:48.329Z,101166.09
2024-03-06T20:18:49.875Z,101167.94
2024-03-06T20:21:51.747Z,101165.44
2024-03-06T20:24:53.282Z,101162.09
2024-03-06T20:27:54.856Z,101160.34
2024-03-06T20:30:56.359Z,101176.09
2024-03-06T20:33:57.793Z,101169.06
2024-03-06T20:36:59.352Z,101172.63
2024-03-06T20:40:00.958Z,101168.31
2024-03-06T20:43:02.601Z,101162.19
2024-03-06T20:46:04.136Z,101168.41
2024-03-06T20:49:07.613Z,101174.63
2024-03-06T20:52:10.657Z,101177.28
2024-03-06T20:55:12.446Z,101178.16
2024-03-06T20:58:14.949Z,101170.34
2024-03-06T21:01:16.544Z,101180.00
2024-03-06T21:04:18.140Z,101178.28
2024-03-06T21:07:19.796Z,101171.47
2024-03-06T21:10:21.233Z,101171.66
2024-03-06T21:13:22.851Z,101173.56
2024-03-06T21:16:24.778Z,101179.66
2024-03-06T21:19:26.205Z,101182.34
2024-03-06T21:22:28.463Z,101173.69
2024-03-06T21:25:29.935Z,101178.13
2024-03-06T21:28:31.438Z,101179.00
2024-03-06T21:31:32.906Z,101175.50
2024-03-06T21:34:34.689Z,101180.75
2024-03-06T21:37:36.354Z,101180.91
2024-03-06T21:40:38.107Z,101176.47
2024-03-06T21:43:39.591Z,101187.91
2024-03-06T21:46:41.019Z,101180.09
2024-03-06T21:49:42.501Z,101179.25
2024-03-06T21:52:44.066Z,101186.25
2024-03-06T21:55:45.604Z,101189.78
2024-03-06T21:58:47.279Z,101180.16
2024-03-06T22:01:48.806Z,101185.47
2024-03-06T22:04:50.296Z,101187.25
2024-03-06T22:07:52.296Z,101183.78
2024-03-06T22:10:53.812Z,101186.47
2024-03-06T22:13:56.514Z,101187.38
2024-03-06T22:16:58.923Z,101186.50
2024-03-06T22:20:00.610Z,101186.53
2024-03-06T22:23:02.581Z,101183.00
2024-03-06T22:26:04.229Z,101193.56
2024-03-06T22:29:06.449Z,101190.13
2024-03-06T22:32:07.938Z,101197.16
2024-03-06T22:35:11.202Z,101193.66
2024-03-06T22:38:12.960Z,101197.19
2024-03-06T22:41:24.530Z,101190.22
2024-03-06T22:44:26.004Z,101196.34
2024-03-06T22:47:27.586Z,101201.59
2024-03-06T22:50:29.276Z,101206.00
2024-03-06T22:53:30.870Z,101206.88
2024-03-06T22:56:33.353Z,101208.69
2024-03-06T22:59:35.143Z,101202.56
2024-03-06T23:02:36.753Z,101216.53
2024-03-06T23:05:39.590Z,101214.75
2024-03-06T23:08:41.251Z,101226.13
2024-03-06T23:11:42.913Z,101224.34
2024-03-06T23:14:44.553Z,101230.53
2024-03-06T23:17:47.444Z,101222.69
2024-03-06T23:20:50.001Z,101226.19
2024-03-06T23:23:51.877Z,101209.63
2024-03-06T23:26:53.522Z,101218.38
2024-03-06T23:29:55.090Z,101221.84
2024-03-06T23:32:56.820Z,101220.13
2024-03-06T23:35:58.363Z,101223.59
2024-03-06T23:38:59.947Z,101227.06
2024-03-06T23:42:03.107Z,101223.59
2024-03-06T23:45:05.974Z,101218.38
2024-03-06T23:48:07.937Z,101217.50
2024-03-06T23:51:09.921Z,101213.13
2024-03-06T23:54:11.545Z,101222.72
2024-03-06T23:57:13.551Z,101217.50
